Clifton, New Jersey
Current Conditions -  °F | °C
As of 5:51 PM on Wednesday 22 Oct 2014 (Local Time) from KTEB Reporting Station
Moderate Rain Moderate Rain  
Wind Chill: 53°   Ceiling: 1800
Heat Index: 53°   Visibility: 5mi
Dew Point: 48°   Wind: 12mph
Humidity: 83%   Direction: 360°N
Pressure: 29.83"   Gusts: 22mph
Location:  40.87°N, 74.16°W
Report Text: KTEB 222151Z 36010G19KT 5SM RA HZ BKN018 OVC026 12/09 A2983 RMK AO2 RAB22 SLP099 P0008 T01170089 $
Loading
Personal Weather Stations






























Interactive Weather Map New forecast layout! Learn more

10-Day Weather Forecast

Advertisements
Track Severe Weather on mobile